Time;durP1;ratioP1;P1;durP2;ratioP2;P2;SDS_P1;SDS_P2;PMS_P1;PMS_P2;Temp;Humidity;BMP_temperature;BMP_pressure;BME280_temperature;BME280_humidity;BME280_pressure;Samples;Min_cycle;Max_cycle;Signal;HPM_P1;HPM_P2
2022/11/19 00:02:04;;;;;;;31.77;16.23;;;12.00;96.00;;;;;;5071405;28;20868;-80
2022/11/19 00:04:34;;;;;;;30.77;16.53;;;12.00;96.20;;;;;;5069986;28;20682;-82
2022/11/19 00:07:02;;;;;;;32.87;17.23;;;12.00;96.60;;;;;;5069459;28;20195;-80
2022/11/19 00:09:31;;;;;;;35.77;16.47;;;12.00;96.60;;;;;;5065166;28;20246;-84
2022/11/19 00:14:45;;;;;;;36.90;16.57;;;12.00;97.00;;;;;;5067072;28;20247;-82
2022/11/19 00:17:13;;;;;;;31.52;18.00;;;12.00;96.80;;;;;;5067396;28;20440;-82
2022/11/19 00:19:43;;;;;;;30.70;15.97;;;12.10;97.00;;;;;;5068611;28;20662;-83
2022/11/19 00:22:11;;;;;;;29.33;15.53;;;12.10;97.00;;;;;;5065600;28;20252;-84
2022/11/19 00:24:39;;;;;;;36.43;16.83;;;12.10;97.40;;;;;;5070452;28;20195;-82
2022/11/19 00:27:08;;;;;;;27.43;14.97;;;12.00;97.70;;;;;;5069804;28;20262;-82
2022/11/19 00:29:36;;;;;;;28.77;15.10;;;12.10;97.70;;;;;;5065123;28;20218;-81
2022/11/19 00:32:05;;;;;;;32.83;17.03;;;12.10;97.90;;;;;;5064989;28;20199;-83
2022/11/19 00:34:33;;;;;;;29.87;15.43;;;12.10;97.80;;;;;;5073983;28;20220;-81
2022/11/19 00:37:03;;;;;;;35.30;16.77;;;12.10;97.80;;;;;;5069807;28;20241;-79
2022/11/19 00:39:31;;;;;;;30.37;15.50;;;12.10;98.20;;;;;;5062692;28;20606;-82
2022/11/19 00:41:59;;;;;;;31.83;16.03;;;12.10;98.60;;;;;;5063194;28;20540;-83
2022/11/19 00:44:30;;;;;;;33.93;17.37;;;12.10;98.80;;;;;;5066802;28;20206;-82
2022/11/19 00:47:04;;;;;;;31.57;16.10;;;12.20;98.80;;;;;;5067368;28;20206;-83
2022/11/19 00:49:33;;;;;;;32.80;16.00;;;12.20;98.90;;;;;;5069469;28;20244;-82
2022/11/19 00:52:03;;;;;;;37.13;17.43;;;12.20;99.00;;;;;;5067604;28;20229;-83
2022/11/19 00:54:31;;;;;;;33.60;17.98;;;12.20;99.30;;;;;;5066886;28;20519;-84
2022/11/19 00:56:59;;;;;;;29.43;14.50;;;12.20;99.30;;;;;;5066960;28;20623;-84
2022/11/19 00:59:28;;;;;;;32.83;16.50;;;12.30;99.50;;;;;;5062519;28;20247;-82
2022/11/19 01:01:56;;;;;;;33.73;16.83;;;12.30;99.50;;;;;;5066039;28;21550;-83
2022/11/19 01:04:24;;;;;;;32.97;17.10;;;12.30;99.60;;;;;;5068771;28;20195;-83
2022/11/19 01:06:53;;;;;;;30.57;16.30;;;12.30;99.70;;;;;;5064856;28;20199;-79
2022/11/19 01:09:23;;;;;;;32.40;16.50;;;12.30;99.60;;;;;;5066582;28;20206;-85
2022/11/19 01:11:51;;;;;;;30.50;15.13;;;12.30;99.40;;;;;;5067464;28;20190;-82
2022/11/19 01:14:20;;;;;;;32.13;16.13;;;12.30;99.30;;;;;;5062382;28;20198;-83
2022/11/19 01:16:48;;;;;;;32.23;15.70;;;12.40;99.10;;;;;;5065004;28;20211;-85
2022/11/19 01:19:17;;;;;;;35.97;16.77;;;12.40;99.40;;;;;;5069104;28;20198;-85
2022/11/19 01:21:45;;;;;;;34.47;16.43;;;12.40;99.10;;;;;;5067577;28;21401;-81
2022/11/19 01:24:13;;;;;;;32.43;16.83;;;12.40;99.00;;;;;;5060795;28;20190;-85
2022/11/19 01:26:43;;;;;;;29.03;15.97;;;12.40;99.00;;;;;;5067181;28;20195;-81
2022/11/19 01:29:13;;;;;;;35.23;16.73;;;12.40;99.00;;;;;;5063386;28;20198;-82
2022/11/19 01:31:41;;;;;;;32.80;16.87;;;12.40;99.10;;;;;;5061528;28;20194;-81
2022/11/19 01:34:10;;;;;;;37.73;17.50;;;12.40;99.00;;;;;;5061148;28;20261;-82
2022/11/19 01:36:38;;;;;;;35.07;16.77;;;12.40;98.90;;;;;;5021654;28;1349321;-81
2022/11/19 01:39:06;;;;;;;34.00;17.37;;;12.40;98.70;;;;;;5068200;28;20572;-79
2022/11/19 01:41:35;;;;;;;32.37;17.00;;;12.50;98.60;;;;;;5069742;28;20221;-81
2022/11/19 01:44:06;;;;;;;33.80;17.07;;;12.50;98.60;;;;;;5069924;28;20230;-80
2022/11/19 01:46:37;;;;;;;37.27;17.53;;;12.60;98.60;;;;;;5066905;28;20603;-79
2022/11/19 01:49:08;;;;;;;32.43;15.97;;;12.50;98.50;;;;;;5065360;28;20248;-81
2022/11/19 01:51:41;;;;;;;32.70;16.57;;;12.60;98.40;;;;;;5068985;28;20615;-83
2022/11/19 01:54:15;;;;;;;39.23;17.83;;;12.60;98.30;;;;;;5072192;28;20198;-81
2022/11/19 01:56:43;;;;;;;35.40;17.20;;;12.60;98.30;;;;;;5071238;28;20233;-81
2022/11/19 01:59:17;;;;;;;38.97;16.87;;;12.60;98.20;;;;;;5069253;28;20225;-83
2022/11/19 02:01:46;;;;;;;33.63;16.63;;;12.60;98.10;;;;;;5068368;28;20661;-80
2022/11/19 02:04:16;;;;;;;43.87;17.10;;;12.60;98.10;;;;;;5071174;28;20207;-83
2022/11/19 02:06:45;;;;;;;36.73;17.57;;;12.60;98.00;;;;;;5072880;28;20586;-86
2022/11/19 02:09:14;;;;;;;33.23;16.03;;;12.60;97.80;;;;;;5074798;28;20201;-78
2022/11/19 02:12:02;;;;;;;31.17;16.47;;;12.60;97.80;;;;;;5072098;28;20655;-84
2022/11/19 02:15:03;;;;;;;34.77;17.60;;;12.60;97.80;;;;;;5068881;28;21331;-81
2022/11/19 02:17:52;;;;;;;31.93;15.37;;;12.50;97.70;;;;;;5067669;28;20203;-83
2022/11/19 02:20:55;;;;;;;36.30;16.87;;;12.50;97.70;;;;;;5069721;28;20198;-80
2022/11/19 02:23:49;;;;;;;34.93;16.20;;;12.50;97.60;;;;;;5060451;28;20283;-82
2022/11/19 02:26:50;;;;;;;35.97;16.50;;;12.50;97.60;;;;;;5074239;28;20260;-81
2022/11/19 02:29:37;;;;;;;42.17;17.33;;;12.50;97.50;;;;;;5071284;28;20241;-82
2022/11/19 02:32:13;;;;;;;33.80;15.83;;;12.50;97.40;;;;;;5075943;28;20205;-83
2022/11/19 02:34:46;;;;;;;35.93;16.60;;;12.50;97.30;;;;;;5068467;28;20226;-82
2022/11/19 02:37:20;;;;;;;31.67;15.57;;;12.50;97.20;;;;;;5066239;28;20717;-84
2022/11/19 02:39:53;;;;;;;32.20;15.60;;;12.50;97.20;;;;;;5065592;28;20229;-82
2022/11/19 02:42:26;;;;;;;28.93;15.10;;;12.60;97.20;;;;;;5062177;28;20215;-82
2022/11/19 02:45:01;;;;;;;34.70;15.53;;;12.60;97.10;;;;;;5065371;28;20194;-84
2022/11/19 02:47:33;;;;;;;30.43;14.93;;;12.60;96.90;;;;;;5068767;28;20205;-83
2022/11/19 02:50:07;;;;;;;29.23;15.47;;;12.60;96.90;;;;;;5065801;28;20818;-81
2022/11/19 02:52:36;;;;;;;33.37;15.60;;;12.50;96.80;;;;;;5067131;28;20236;-83
2022/11/19 02:55:06;;;;;;;33.63;15.50;;;12.50;97.10;;;;;;5072291;28;20666;-84
2022/11/19 02:57:36;;;;;;;33.60;17.40;;;12.50;97.00;;;;;;5074686;28;20241;-81
2022/11/19 03:06:00;;;;;;;35.40;18.10;;;12.40;97.10;;;;;;5069830;28;20232;-82
2022/11/19 03:08:29;;;;;;;30.60;15.13;;;12.40;97.10;;;;;;5072391;28;20205;-83
2022/11/19 03:11:07;;;;;;;34.50;16.53;;;12.40;97.10;;;;;;5071691;28;20610;-81
2022/11/19 03:16:42;;;;;;;38.27;17.70;;;12.30;97.10;;;;;;5068185;28;20206;-79
2022/11/19 03:19:33;;;;;;;38.63;17.57;;;12.30;97.10;;;;;;5071144;28;20255;-80
2022/11/19 03:22:09;;;;;;;38.07;17.43;;;12.30;97.20;;;;;;5063730;28;20230;-84
2022/11/19 03:24:43;;;;;;;40.13;19.65;;;12.30;97.20;;;;;;5065791;28;20445;-82
2022/11/19 03:27:16;;;;;;;38.03;18.00;;;12.30;97.30;;;;;;5062430;28;20186;-80
2022/11/19 03:29:48;;;;;;;40.57;19.67;;;12.20;97.30;;;;;;5062488;28;20612;-83
2022/11/19 03:32:22;;;;;;;37.27;18.43;;;12.20;97.10;;;;;;5068485;28;20281;-83
2022/11/19 03:34:56;;;;;;;38.63;18.20;;;12.20;97.10;;;;;;5063647;28;20316;-79
2022/11/19 03:37:26;;;;;;;36.43;17.73;;;12.20;97.10;;;;;;5070813;28;20321;-83
2022/11/19 03:39:59;;;;;;;35.83;18.50;;;12.10;97.10;;;;;;5070028;28;20187;-84
2022/11/19 03:42:28;;;;;;;40.37;17.67;;;12.00;97.10;;;;;;5070371;28;20225;-83
2022/11/19 03:45:02;;;;;;;36.87;18.30;;;12.00;97.10;;;;;;5069390;28;20602;-82
2022/11/19 03:47:36;;;;;;;38.50;18.20;;;12.00;97.20;;;;;;5072593;28;20194;-82
2022/11/19 03:50:15;;;;;;;38.70;17.60;;;11.90;97.30;;;;;;5067907;28;20904;-85
2022/11/19 03:52:43;;;;;;;37.93;17.60;;;11.90;97.40;;;;;;5065270;28;20226;-82
2022/11/19 03:55:12;;;;;;;41.00;16.90;;;11.90;97.50;;;;;;5071463;28;20194;-80
2022/11/19 03:57:41;;;;;;;36.87;17.70;;;11.90;97.70;;;;;;5072253;28;20218;-84
2022/11/19 04:00:10;;;;;;;35.87;16.97;;;11.90;97.70;;;;;;5066033;28;20233;-81
2022/11/19 04:02:40;;;;;;;35.20;16.00;;;11.90;97.70;;;;;;5066075;28;20194;-82
2022/11/19 04:05:09;;;;;;;29.40;15.47;;;11.90;97.80;;;;;;5067996;28;20190;-81
2022/11/19 04:07:37;;;;;;;33.87;16.03;;;11.90;97.80;;;;;;5065968;28;20603;-82
2022/11/19 04:10:06;;;;;;;29.20;16.00;;;11.90;97.70;;;;;;5066291;28;20222;-84
2022/11/19 04:12:34;;;;;;;33.70;16.13;;;11.90;97.80;;;;;;5066511;28;20194;-82
2022/11/19 04:15:03;;;;;;;30.90;16.27;;;11.90;97.70;;;;;;5066662;28;20191;-87
2022/11/19 04:17:31;;;;;;;35.27;16.70;;;11.90;97.70;;;;;;5064247;28;20225;-82
2022/11/19 04:20:01;;;;;;;28.23;14.53;;;11.90;97.70;;;;;;5069862;28;20547;-80
2022/11/19 04:22:29;;;;;;;30.17;14.53;;;11.90;97.70;;;;;;5062038;28;20738;-82
2022/11/19 04:24:57;;;;;;;30.57;14.97;;;11.80;97.70;;;;;;5068375;28;20667;-85
2022/11/19 04:27:26;;;;;;;29.83;15.17;;;11.90;97.60;;;;;;5061843;28;20228;-83
2022/11/19 04:29:54;;;;;;;32.23;15.73;;;11.90;97.50;;;;;;5066983;28;20226;-84
2022/11/19 04:32:22;;;;;;;30.87;14.70;;;11.90;97.50;;;;;;5070097;28;20194;-81
2022/11/19 04:34:50;;;;;;;33.10;15.37;;;11.90;97.40;;;;;;5064900;28;20252;-83
2022/11/19 04:37:20;;;;;;;31.73;15.00;;;11.90;97.30;;;;;;5067893;28;20264;-84
2022/11/19 04:39:48;;;;;;;26.73;14.90;;;11.90;97.30;;;;;;5072390;28;20276;-79
2022/11/19 04:42:17;;;;;;;34.23;15.50;;;11.80;97.30;;;;;;5068733;28;20194;-84
2022/11/19 04:44:45;;;;;;;34.13;15.20;;;11.80;97.10;;;;;;5063449;28;20202;-84
2022/11/19 04:47:13;;;;;;;31.60;14.93;;;11.80;97.00;;;;;;5064155;28;20193;-82
2022/11/19 04:49:42;;;;;;;27.87;13.77;;;11.80;97.00;;;;;;5063182;28;20229;-85
2022/11/19 04:52:10;;;;;;;34.70;16.03;;;11.80;97.00;;;;;;5070558;28;20250;-83
2022/11/19 04:54:40;;;;;;;31.70;14.97;;;11.80;97.00;;;;;;5069336;28;20639;-79
2022/11/19 04:57:08;;;;;;;28.53;13.37;;;11.80;97.00;;;;;;5066238;28;20226;-82
2022/11/19 04:59:37;;;;;;;29.30;13.00;;;11.70;97.30;;;;;;5065499;28;20222;-81
2022/11/19 05:02:05;;;;;;;25.57;13.53;;;11.80;97.20;;;;;;5063272;28;20199;-82
2022/11/19 05:04:33;;;;;;;23.60;12.30;;;11.80;97.20;;;;;;5070934;28;20213;-80
2022/11/19 05:07:03;;;;;;;25.03;12.13;;;11.80;97.30;;;;;;5061752;28;20230;-79
2022/11/19 05:09:32;;;;;;;23.53;12.33;;;11.80;97.30;;;;;;5072633;28;20643;-81
2022/11/19 05:12:02;;;;;;;25.50;12.87;;;11.90;97.20;;;;;;5064024;28;20206;-82
2022/11/19 05:14:30;;;;;;;27.97;12.90;;;11.80;97.20;;;;;;5063586;28;20229;-80
2022/11/19 05:16:58;;;;;;;22.40;12.60;;;11.80;97.10;;;;;;5063765;28;20198;-82
2022/11/19 05:19:27;;;;;;;22.90;11.87;;;11.90;97.10;;;;;;5068269;28;20268;-84
2022/11/19 05:21:55;;;;;;;21.70;12.03;;;11.80;97.00;;;;;;5063094;28;20265;-78
2022/11/19 05:24:23;;;;;;;22.57;11.37;;;11.90;97.00;;;;;;5062145;28;20229;-79
2022/11/19 05:26:51;;;;;;;20.87;11.03;;;11.90;97.00;;;;;;5067892;28;20204;-80
2022/11/19 05:29:21;;;;;;;22.90;11.30;;;11.90;96.90;;;;;;5064571;28;20218;-83
2022/11/19 05:31:49;;;;;;;22.37;11.57;;;11.90;96.90;;;;;;5067477;28;20198;-80
2022/11/19 05:34:18;;;;;;;21.80;10.20;;;11.80;96.90;;;;;;5066345;28;20259;-82
2022/11/19 05:36:46;;;;;;;18.77;10.10;;;11.80;96.90;;;;;;5060133;28;20323;-81
2022/11/19 05:39:14;;;;;;;21.40;10.13;;;11.80;96.90;;;;;;5063441;28;20284;-84
2022/11/19 05:41:49;;;;;;;23.17;11.00;;;11.80;96.90;;;;;;5066222;28;20198;-85
2022/11/19 05:44:17;;;;;;;17.63;10.07;;;11.80;96.90;;;;;;5065712;28;20650;-82
2022/11/19 05:46:50;;;;;;;18.63;9.97;;;11.90;97.00;;;;;;5065744;28;20203;-80
2022/11/19 05:49:18;;;;;;;17.87;9.43;;;11.80;97.00;;;;;;5063765;28;20182;-77
2022/11/19 05:51:47;;;;;;;19.40;9.53;;;11.80;97.00;;;;;;5064254;28;20599;-82
2022/11/19 05:54:15;;;;;;;16.63;8.83;;;11.80;96.90;;;;;;5067763;28;20229;-82
2022/11/19 05:56:44;;;;;;;17.57;9.33;;;11.80;96.90;;;;;;5068270;28;20260;-81
2022/11/19 05:59:12;;;;;;;17.00;9.57;;;11.80;96.90;;;;;;5068462;28;20629;-85
2022/11/19 06:01:40;;;;;;;17.77;9.30;;;11.80;97.10;;;;;;5065684;28;20210;-83
2022/11/19 06:04:11;;;;;;;14.17;8.63;;;11.80;97.10;;;;;;5068122;28;20221;-81
2022/11/19 06:06:39;;;;;;;14.43;8.20;;;11.80;97.10;;;;;;5063167;28;20539;-84
2022/11/19 06:09:08;;;;;;;12.17;7.67;;;11.80;97.60;;;;;;5067975;28;20198;-84
2022/11/19 06:11:49;;;;;;;14.17;8.63;;;11.90;97.30;;;;;;5067542;28;20253;-82
2022/11/19 06:14:20;;;;;;;13.73;7.93;;;11.90;97.10;;;;;;5061175;28;20194;-79
2022/11/19 06:16:50;;;;;;;14.70;8.30;;;11.90;97.10;;;;;;5060245;28;20233;-81
2022/11/19 06:19:20;;;;;;;18.37;7.67;;;11.90;97.10;;;;;;5062787;28;20242;-82
2022/11/19 06:21:50;;;;;;;15.30;7.83;;;11.90;97.10;;;;;;5061921;28;20622;-86
2022/11/19 06:24:19;;;;;;;10.70;6.23;;;11.90;97.20;;;;;;5061312;28;20274;-87
2022/11/19 06:26:47;;;;;;;9.63;6.03;;;12.00;97.30;;;;;;5068871;28;20203;-81
2022/11/19 06:29:16;;;;;;;11.03;6.50;;;12.10;97.10;;;;;;5073785;28;20216;-82
2022/11/19 06:31:45;;;;;;;11.97;7.23;;;12.10;97.20;;;;;;5074138;28;20198;-81
2022/11/19 06:34:14;;;;;;;11.60;6.13;;;12.20;97.20;;;;;;5069756;28;20222;-82
2022/11/19 06:36:45;;;;;;;10.57;6.50;;;12.20;97.20;;;;;;5066290;28;20207;-82
2022/11/19 06:39:18;;;;;;;14.57;7.18;;;12.30;97.10;;;;;;5067531;28;20453;-80
2022/11/19 06:41:47;;;;;;;11.80;6.33;;;12.40;97.10;;;;;;5065635;28;20565;-79
2022/11/19 06:44:15;;;;;;;11.53;6.50;;;12.40;97.00;;;;;;5065853;28;20290;-79
2022/11/19 06:46:44;;;;;;;11.27;6.30;;;12.40;96.90;;;;;;5070449;28;20249;-82
2022/11/19 06:49:12;;;;;;;9.70;6.27;;;12.50;96.70;;;;;;5063192;28;20207;-85
2022/11/19 06:51:48;;;;;;;11.50;7.23;;;12.60;96.70;;;;;;5068610;28;20205;-81
2022/11/19 06:54:17;;;;;;;9.93;5.77;;;12.70;96.60;;;;;;5072313;28;20612;-77
2022/11/19 06:56:45;;;;;;;17.67;7.33;;;12.70;96.30;;;;;;5033253;28;20227;-80
2022/11/19 06:59:13;;;;;;;14.70;7.10;;;12.70;96.10;;;;;;5075003;28;20253;-83
2022/11/19 07:01:41;;;;;;;9.70;5.67;;;12.80;96.10;;;;;;5068312;28;20221;-81
2022/11/19 07:04:10;;;;;;;10.70;5.90;;;12.80;95.90;;;;;;5068904;28;20195;-84
2022/11/19 07:06:38;;;;;;;10.23;6.50;;;12.80;95.90;;;;;;5070731;28;20436;-82
2022/11/19 07:09:08;;;;;;;9.30;6.07;;;12.90;95.90;;;;;;5065669;28;20644;-84
2022/11/19 07:11:37;;;;;;;11.07;6.80;;;12.90;95.80;;;;;;5069095;28;20226;-77
2022/11/19 07:14:05;;;;;;;11.70;6.87;;;12.90;95.60;;;;;;5067003;28;20274;-81
2022/11/19 07:16:35;;;;;;;12.00;6.43;;;12.90;95.60;;;;;;5060590;28;20674;-82
2022/11/19 07:19:06;;;;;;;11.00;6.53;;;13.00;95.80;;;;;;5067733;28;20199;-82
2022/11/19 07:21:34;;;;;;;10.23;6.03;;;13.10;95.70;;;;;;5058780;28;20276;-83
2022/11/19 07:24:05;;;;;;;9.70;6.22;;;13.10;95.50;;;;;;5067132;28;21135;-81
2022/11/19 07:26:36;;;;;;;14.10;5.97;;;13.20;95.50;;;;;;5067038;28;20190;-81
2022/11/19 07:29:07;;;;;;;8.27;5.60;;;13.30;95.20;;;;;;5068247;28;20199;-83
2022/11/19 07:31:35;;;;;;;12.13;5.77;;;13.30;95.10;;;;;;5068355;28;20252;-80
2022/11/19 07:34:06;;;;;;;14.07;5.83;;;13.40;95.00;;;;;;5064085;28;20603;-81
2022/11/19 07:36:34;;;;;;;7.97;5.23;;;13.50;95.00;;;;;;5057182;28;20241;-81
2022/11/19 07:39:03;;;;;;;11.77;6.10;;;13.50;94.60;;;;;;5063800;28;20198;-82
2022/11/19 07:44:19;;;;;;;10.77;5.37;;;13.60;94.40;;;;;;5060334;28;20198;-79
2022/11/19 07:46:47;;;;;;;14.47;5.93;;;13.70;94.40;;;;;;5070057;28;20198;-79
2022/11/19 07:49:16;;;;;;;9.03;4.70;;;13.70;94.30;;;;;;5061548;28;20289;-81
2022/11/19 07:51:45;;;;;;;8.90;5.77;;;13.70;94.10;;;;;;5069949;28;20279;-79
2022/11/19 07:54:14;;;;;;;8.17;5.53;;;13.80;94.10;;;;;;5068893;28;20199;-81
2022/11/19 07:56:42;;;;;;;8.63;5.10;;;13.80;94.00;;;;;;5064360;28;20249;-82
2022/11/19 07:59:11;;;;;;;9.10;5.17;;;13.80;93.80;;;;;;5069337;28;20199;-82
2022/11/19 08:01:41;;;;;;;9.07;4.90;;;13.90;93.80;;;;;;5065289;28;20225;-82
2022/11/19 08:04:10;;;;;;;7.43;4.40;;;14.00;93.80;;;;;;5067401;28;20469;-79
2022/11/19 08:06:42;;;;;;;9.07;4.93;;;14.00;93.50;;;;;;5069360;28;20206;-82
2022/11/19 08:09:10;;;;;;;9.63;4.93;;;14.00;93.40;;;;;;5060790;28;20598;-81
2022/11/19 08:11:39;;;;;;;7.13;4.43;;;14.00;93.20;;;;;;5064364;28;20290;-77
2022/11/19 08:14:07;;;;;;;8.07;4.83;;;14.10;93.10;;;;;;5067479;28;20235;-84
2022/11/19 08:19:22;;;;;;;6.50;3.97;;;14.10;92.90;;;;;;5063089;28;20553;-77
2022/11/19 08:21:51;;;;;;;6.57;4.03;;;14.30;93.00;;;;;;5068111;28;20218;-80
2022/11/19 08:24:20;;;;;;;8.53;3.53;;;14.30;92.60;;;;;;5066505;28;20705;-80
2022/11/19 08:26:49;;;;;;;6.73;4.17;;;14.40;92.60;;;;;;5068587;28;20191;-80
2022/11/19 08:29:22;;;;;;;10.90;4.23;;;14.40;91.90;;;;;;5071269;28;20249;-80
2022/11/19 08:31:51;;;;;;;10.67;3.90;;;14.40;91.90;;;;;;5065697;28;20561;-81
2022/11/19 08:34:20;;;;;;;7.17;3.90;;;14.50;91.90;;;;;;5065855;28;20194;-78
2022/11/19 08:36:51;;;;;;;8.20;4.40;;;14.50;91.70;;;;;;5069164;28;20465;-80
2022/11/19 08:39:19;;;;;;;7.80;3.60;;;14.70;91.80;;;;;;5063953;28;20194;-82
2022/11/19 08:44:35;;;;;;;7.03;3.53;;;14.70;91.20;;;;;;5061268;28;20667;-81
2022/11/19 08:47:04;;;;;;;5.90;3.10;;;14.80;91.30;;;;;;5059345;28;20247;-80
2022/11/19 08:49:32;;;;;;;4.57;2.70;;;14.90;91.10;;;;;;5063628;28;20194;-82
2022/11/19 08:52:02;;;;;;;6.37;3.00;;;14.90;90.70;;;;;;5067189;28;20248;-78
2022/11/19 08:54:30;;;;;;;6.67;3.33;;;15.00;90.60;;;;;;5066201;28;20190;-80
2022/11/19 08:57:06;;;;;;;7.50;3.07;;;15.00;90.60;;;;;;5066196;28;20245;-80
2022/11/19 08:59:35;;;;;;;7.07;3.00;;;15.10;90.10;;;;;;5063304;28;20203;-81
2022/11/19 09:02:03;;;;;;;5.63;2.77;;;15.10;89.90;;;;;;5067080;28;20231;-78
2022/11/19 09:04:31;;;;;;;4.07;2.47;;;15.20;89.70;;;;;;5066887;28;20686;-81
2022/11/19 09:07:01;;;;;;;5.83;3.03;;;15.20;88.80;;;;;;5069073;28;20202;-85
2022/11/19 09:09:29;;;;;;;6.30;2.97;;;15.20;89.00;;;;;;5066944;28;20286;-81
2022/11/19 09:11:58;;;;;;;4.30;2.47;;;15.30;89.10;;;;;;5061389;28;20904;-79
2022/11/19 09:14:26;;;;;;;4.77;2.40;;;15.30;88.60;;;;;;5068944;28;20249;-79
2022/11/19 09:16:54;;;;;;;4.07;2.30;;;15.30;88.50;;;;;;5066782;28;20206;-78
2022/11/19 09:19:23;;;;;;;3.70;2.20;;;15.40;88.40;;;;;;5068239;28;20610;-83
2022/11/19 09:21:51;;;;;;;4.23;2.43;;;15.50;88.30;;;;;;5070898;28;20699;-80
2022/11/19 09:24:21;;;;;;;4.67;2.53;;;15.50;87.90;;;;;;5060209;28;20199;-81
2022/11/19 09:26:49;;;;;;;3.73;2.00;;;15.60;87.60;;;;;;5070563;28;20226;-78
2022/11/19 09:29:20;;;;;;;4.73;3.40;;;15.60;87.20;;;;;;5066072;28;20240;-78
2022/11/19 09:31:48;;;;;;;4.23;2.53;;;15.70;87.00;;;;;;5070220;28;20233;-79
2022/11/19 09:34:17;;;;;;;4.83;2.20;;;15.70;86.70;;;;;;5065367;28;20233;-83
2022/11/19 09:36:46;;;;;;;6.37;2.77;;;15.80;86.90;;;;;;5069054;28;20849;-82
2022/11/19 09:39:14;;;;;;;5.93;2.67;;;15.90;86.70;;;;;;5070131;28;20195;-78
2022/11/19 09:41:49;;;;;;;5.17;2.43;;;15.90;86.30;;;;;;5070914;28;20298;-82
2022/11/19 09:44:35;;;;;;;5.40;2.60;;;16.00;85.20;;;;;;5059568;28;20252;-83
2022/11/19 09:47:21;;;;;;;4.20;2.30;;;16.00;84.70;;;;;;5066907;28;20226;-82
2022/11/19 09:49:58;;;;;;;3.63;2.00;;;16.00;84.80;;;;;;5060998;28;20222;-83
2022/11/19 09:52:32;;;;;;;3.07;1.90;;;16.10;84.40;;;;;;5066685;28;20905;-82
2022/11/19 09:55:01;;;;;;;5.75;2.40;;;16.20;85.50;;;;;;5068289;28;20428;-77
2022/11/19 09:57:38;;;;;;;3.00;1.80;;;16.20;84.50;;;;;;5063278;28;20203;-81
2022/11/19 10:00:08;;;;;;;4.97;2.30;;;16.30;84.20;;;;;;5071971;28;20206;-80
2022/11/19 10:02:36;;;;;;;3.77;2.20;;;16.40;84.40;;;;;;5076020;28;20255;-81
2022/11/19 10:05:05;;;;;;;4.27;1.97;;;16.40;84.10;;;;;;5074188;28;20202;-80
2022/11/19 10:07:44;;;;;;;4.73;2.30;;;16.50;83.70;;;;;;5064724;28;20231;-80
2022/11/19 10:10:24;;;;;;;3.90;2.17;;;16.50;83.10;;;;;;5063454;28;20198;-83
2022/11/19 10:13:28;;;;;;;6.13;2.80;;;16.50;83.40;;;;;;5067601;28;20252;-79
2022/11/19 10:16:20;;;;;;;6.70;2.60;;;16.60;83.20;;;;;;5064640;28;20221;-76
2022/11/19 10:18:58;;;;;;;4.23;2.13;;;16.60;82.80;;;;;;5015947;28;20655;-79
2022/11/19 10:21:32;;;;;;;3.57;2.27;;;16.60;81.60;;;;;;5069381;28;20577;-81
2022/11/19 10:24:16;;;;;;;5.20;2.33;;;16.70;82.40;;;;;;5061688;28;20202;-81
2022/11/19 10:26:57;;;;;;;6.77;2.37;;;16.80;82.50;;;;;;5070059;28;20682;-82
2022/11/19 10:29:37;;;;;;;3.93;2.30;;;16.90;82.20;;;;;;5066455;28;20190;-80
2022/11/19 10:32:23;;;;;;;3.73;2.07;;;16.90;81.80;;;;;;5068771;28;20275;-80
2022/11/19 10:34:57;;;;;;;6.43;2.43;;;17.00;81.90;;;;;;5074931;28;20428;-81
2022/11/19 10:37:29;;;;;;;4.57;2.60;;;17.20;82.60;;;;;;5065948;28;20245;-82
2022/11/19 10:40:02;;;;;;;4.67;2.57;;;17.20;81.50;;;;;;5063789;28;20199;-78
2022/11/19 10:42:35;;;;;;;3.90;2.30;;;17.30;80.80;;;;;;5070980;28;20259;-81
2022/11/19 10:45:13;;;;;;;3.93;2.40;;;17.30;80.70;;;;;;5058827;28;20192;-78
2022/11/19 10:47:47;;;;;;;4.20;2.33;;;17.20;80.40;;;;;;5063777;28;20224;-80
2022/11/19 10:50:18;;;;;;;4.63;1.90;;;17.10;79.60;;;;;;5072245;28;20280;-81
2022/11/19 10:52:51;;;;;;;4.80;1.97;;;17.10;79.80;;;;;;5065177;28;20249;-81
2022/11/19 10:55:27;;;;;;;5.40;2.70;;;17.00;79.70;;;;;;5060655;28;20484;-83
2022/11/19 10:58:06;;;;;;;8.43;2.73;;;17.00;80.20;;;;;;5061967;28;20706;-82
2022/11/19 11:00:39;;;;;;;4.97;2.50;;;17.00;80.10;;;;;;5064135;28;20191;-86
2022/11/19 11:03:18;;;;;;;4.20;2.67;;;17.00;80.60;;;;;;5065869;28;20190;-83
2022/11/19 11:06:06;;;;;;;7.03;2.40;;;16.90;80.50;;;;;;5065746;28;20193;-82
2022/11/19 11:08:48;;;;;;;3.67;2.10;;;16.90;80.70;;;;;;5072231;28;20202;-83
2022/11/19 11:11:24;;;;;;;11.13;2.67;;;16.90;80.70;;;;;;5064322;28;20690;-81
2022/11/19 11:16:46;;;;;;;5.37;2.90;;;16.90;81.20;;;;;;5070431;28;20222;-84
2022/11/19 11:19:18;;;;;;;6.17;3.20;;;17.00;81.50;;;;;;5071259;28;20243;-80
2022/11/19 11:21:52;;;;;;;4.77;2.30;;;17.00;81.30;;;;;;5063797;28;20232;-81
2022/11/19 11:24:21;;;;;;;6.90;2.80;;;17.10;81.70;;;;;;5064554;28;20729;-82
2022/11/19 11:27:19;;;;;;;5.00;2.60;;;17.20;81.30;;;;;;5071263;28;20440;-80
2022/11/19 11:29:48;;;;;;;4.70;2.50;;;17.30;80.30;;;;;;5063107;28;20587;-83
2022/11/19 11:32:39;;;;;;;3.80;2.00;;;17.40;80.40;;;;;;5066317;28;20670;-84
2022/11/19 11:35:31;;;;;;;3.53;2.20;;;17.50;79.90;;;;;;5070521;28;20615;-82
2022/11/19 11:38:01;;;;;;;3.93;2.00;;;17.50;78.90;;;;;;5059071;28;20217;-85
2022/11/19 11:40:30;;;;;;;4.93;2.37;;;17.60;79.00;;;;;;5062878;28;20214;-81
2022/11/19 11:42:59;;;;;;;6.47;2.00;;;17.70;78.50;;;;;;5064126;28;20218;-81
2022/11/19 11:45:31;;;;;;;3.23;1.83;;;17.70;78.50;;;;;;5071192;28;20191;-83
2022/11/19 11:48:07;;;;;;;5.00;2.60;;;17.70;78.10;;;;;;5068276;28;20198;-84
2022/11/19 11:50:36;;;;;;;9.20;3.23;;;17.80;78.20;;;;;;5067540;28;20194;-84
2022/11/19 11:53:09;;;;;;;3.33;2.03;;;17.90;78.20;;;;;;5070295;28;20651;-81
2022/11/19 11:55:38;;;;;;;4.87;2.00;;;18.00;77.20;;;;;;5069574;28;20190;-83
2022/11/19 11:58:25;;;;;;;7.33;2.30;;;18.00;77.40;;;;;;5068814;28;20218;-82
2022/11/19 12:01:17;;;;;;;8.60;3.77;;;18.00;77.20;;;;;;5069895;28;20279;-81
2022/11/19 12:04:06;;;;;;;4.43;2.07;;;18.10;77.20;;;;;;5056031;28;20655;-81
2022/11/19 12:06:39;;;;;;;5.30;2.80;;;18.30;76.90;;;;;;5064188;28;20473;-81
2022/11/19 12:09:15;;;;;;;4.20;2.07;;;18.40;76.20;;;;;;5059929;28;20286;-81
2022/11/19 12:11:56;;;;;;;5.17;1.70;;;18.40;74.90;;;;;;5063118;28;20200;-81
2022/11/19 12:14:27;;;;;;;3.47;1.60;;;18.40;75.00;;;;;;5068513;28;20198;-80
2022/11/19 12:17:10;;;;;;;3.73;2.20;;;18.40;75.30;;;;;;5066231;28;20198;-80
2022/11/19 12:20:01;;;;;;;4.07;2.23;;;18.50;75.00;;;;;;5062167;28;20277;-80
2022/11/19 12:22:44;;;;;;;6.43;2.20;;;18.60;74.80;;;;;;5066409;28;20572;-83
2022/11/19 12:25:25;;;;;;;2.43;1.37;;;18.70;74.80;;;;;;5062957;28;20608;-80
2022/11/19 12:28:11;;;;;;;6.10;1.87;;;18.70;73.90;;;;;;5060425;28;20198;-82
2022/11/19 12:30:58;;;;;;;4.50;1.42;;;18.70;73.40;;;;;;5052974;28;20199;-85
2022/11/19 12:33:49;;;;;;;2.43;1.40;;;18.70;72.30;;;;;;5041081;28;20294;-78
2022/11/19 12:36:27;;;;;;;3.57;1.43;;;18.80;72.90;;;;;;5061672;28;20249;-80
2022/11/19 12:39:01;;;;;;;3.90;1.60;;;18.80;72.60;;;;;;5064068;28;20233;-84
2022/11/19 12:41:45;;;;;;;2.57;1.37;;;18.90;72.80;;;;;;5065440;28;20300;-82
2022/11/19 12:44:25;;;;;;;3.00;1.47;;;18.90;72.90;;;;;;5067252;28;20255;-83
2022/11/19 12:47:00;;;;;;;3.83;1.77;;;18.80;72.20;;;;;;5070659;28;20199;-78
2022/11/19 12:50:02;;;;;;;3.40;1.60;;;18.80;71.30;;;;;;5068544;28;20194;-79
2022/11/19 12:53:05;;;;;;;2.87;1.47;;;18.70;70.20;;;;;;5069085;28;20194;-80
2022/11/19 12:55:43;;;;;;;2.60;1.60;;;18.70;71.20;;;;;;5035867;28;20636;-82
2022/11/19 12:58:22;;;;;;;2.67;1.60;;;18.70;71.70;;;;;;5059405;28;20190;-81
2022/11/19 13:00:53;;;;;;;2.97;1.60;;;18.60;71.40;;;;;;5057165;28;20241;-83
2022/11/19 13:03:34;;;;;;;5.70;1.87;;;18.60;71.50;;;;;;5068377;28;20217;-80
2022/11/19 13:06:07;;;;;;;3.43;1.43;;;18.50;71.10;;;;;;5065893;28;20248;-81
2022/11/19 13:08:43;;;;;;;3.23;1.27;;;18.40;71.10;;;;;;5069926;28;20233;-79
2022/11/19 13:11:15;;;;;;;4.27;1.80;;;18.40;71.50;;;;;;5063457;28;20190;-79
2022/11/19 13:13:48;;;;;;;4.20;2.00;;;18.30;71.60;;;;;;5063987;28;20253;-80
2022/11/19 13:16:19;;;;;;;5.30;1.70;;;18.30;72.20;;;;;;5059640;28;20202;-83
2022/11/19 13:18:51;;;;;;;2.87;1.83;;;18.20;71.50;;;;;;5062501;28;20331;-81
2022/11/19 13:21:27;;;;;;;3.20;1.67;;;18.20;71.80;;;;;;5063306;28;20238;-76
2022/11/19 13:24:06;;;;;;;2.90;1.57;;;18.30;72.10;;;;;;5067987;28;20233;-80
2022/11/19 13:26:36;;;;;;;2.37;1.30;;;18.70;71.60;;;;;;5059199;28;20194;-80